sensor_id;sensor_type;location;lat;lon;timestamp;pressure;altitude;pressure_sealevel;temperature;humidity
33163;BME280;29282;45.656;11.302;2024-02-15T00:00:02;99178.03;;;20.04;41.93
33163;BME280;29282;45.656;11.302;2024-02-15T00:02:28;99184.31;;;20.05;41.51
33163;BME280;29282;45.656;11.302;2024-02-15T00:04:54;99173.31;;;20.05;41.88
33163;BME280;29282;45.656;11.302;2024-02-15T00:07:19;99177.22;;;20.04;42.10
33163;BME280;29282;45.656;11.302;2024-02-15T00:09:48;99167.31;;;20.03;41.16
33163;BME280;29282;45.656;11.302;2024-02-15T00:12:13;99166.53;;;20.02;41.84
33163;BME280;29282;45.656;11.302;2024-02-15T00:14:39;99156.66;;;20.01;41.39
33163;BME280;29282;45.656;11.302;2024-02-15T00:17:04;99156.66;;;20.01;41.28
33163;BME280;29282;45.656;11.302;2024-02-15T00:19:30;99160.56;;;20.00;41.84
33163;BME280;29282;45.656;11.302;2024-02-15T00:21:56;99158.91;;;19.99;41.39
33163;BME280;29282;45.656;11.302;2024-02-15T00:24:22;99155.34;;;19.99;41.32
33163;BME280;29282;45.656;11.302;2024-02-15T00:26:49;99155.84;;;20.01;41.01
33163;BME280;29282;45.656;11.302;2024-02-15T00:29:14;99152.59;;;19.99;41.22
33163;BME280;29282;45.656;11.302;2024-02-15T00:31:42;99154.56;;;19.98;41.51
33163;BME280;29282;45.656;11.302;2024-02-15T00:34:08;99149.34;;;19.97;40.99
33163;BME280;29282;45.656;11.302;2024-02-15T00:36:34;99151.31;;;19.96;41.57
33163;BME280;29282;45.656;11.302;2024-02-15T00:38:59;99149.34;;;19.97;40.96
33163;BME280;29282;45.656;11.302;2024-02-15T00:41:25;99144.19;;;19.95;40.88
33163;BME280;29282;45.656;11.302;2024-02-15T00:43:50;99145.81;;;19.96;41.28
33163;BME280;29282;45.656;11.302;2024-02-15T00:46:16;99150.84;;;19.94;41.27
33163;BME280;29282;45.656;11.302;2024-02-15T00:48:41;99157.44;;;19.93;40.62
33163;BME280;29282;45.656;11.302;2024-02-15T00:51:07;99152.28;;;19.91;40.75
33163;BME280;29282;45.656;11.302;2024-02-15T00:53:33;99144.84;;;19.92;41.46
33163;BME280;29282;45.656;11.302;2024-02-15T00:55:59;99137.72;;;19.91;40.54
33163;BME280;29282;45.656;11.302;2024-02-15T00:58:24;99141.94;;;19.88;40.58
33163;BME280;29282;45.656;11.302;2024-02-15T01:00:52;99147.44;;;19.88;40.52
33163;BME280;29282;45.656;11.302;2024-02-15T01:03:18;99143.53;;;19.89;40.79
33163;BME280;29282;45.656;11.302;2024-02-15T01:05:44;99139.19;;;19.88;40.88
33163;BME280;29282;45.656;11.302;2024-02-15T01:08:10;99145.03;;;19.87;40.66
33163;BME280;29282;45.656;11.302;2024-02-15T01:10:36;99145.81;;;19.87;40.83
33163;BME280;29282;45.656;11.302;2024-02-15T01:13:02;99145.03;;;19.87;40.73
33163;BME280;29282;45.656;11.302;2024-02-15T01:15:28;99144.53;;;19.85;40.40
33163;BME280;29282;45.656;11.302;2024-02-15T01:17:54;99144.53;;;19.85;40.43
33163;BME280;29282;45.656;11.302;2024-02-15T01:20:19;99146.47;;;19.84;40.74
33163;BME280;29282;45.656;11.302;2024-02-15T01:22:49;99139.31;;;19.83;40.80
33163;BME280;29282;45.656;11.302;2024-02-15T01:25:16;99144.03;;;19.83;40.25
33163;BME280;29282;45.656;11.302;2024-02-15T01:27:42;99140.47;;;19.82;40.13
33163;BME280;29282;45.656;11.302;2024-02-15T01:30:08;99134.97;;;19.82;40.66
33163;BME280;29282;45.656;11.302;2024-02-15T01:32:35;99145.16;;;19.82;40.63
33163;BME280;29282;45.656;11.302;2024-02-15T01:35:00;99142.41;;;19.82;40.63
33163;BME280;29282;45.656;11.302;2024-02-15T01:37:26;99144.38;;;19.81;40.09
33163;BME280;29282;45.656;11.302;2024-02-15T01:39:51;99139.66;;;19.82;40.38
33163;BME280;29282;45.656;11.302;2024-02-15T01:42:17;99144.38;;;19.81;40.54
33163;BME280;29282;45.656;11.302;2024-02-15T01:44:44;99135.63;;;19.79;40.12
33163;BME280;29282;45.656;11.302;2024-02-15T01:47:10;99125.75;;;19.78;40.57
33163;BME280;29282;45.656;11.302;2024-02-15T01:49:36;99126.56;;;19.79;40.45
33163;BME280;29282;45.656;11.302;2024-02-15T01:52:04;99124.16;;;19.77;39.83
33163;BME280;29282;45.656;11.302;2024-02-15T01:54:34;99126.06;;;19.77;40.12
33163;BME280;29282;45.656;11.302;2024-02-15T01:57:01;99118.31;;;19.79;40.43
33163;BME280;29282;45.656;11.302;2024-02-15T01:59:28;99122.50;;;19.76;39.92
33163;BME280;29282;45.656;11.302;2024-02-15T02:01:54;99117.00;;;19.76;40.25
33163;BME280;29282;45.656;11.302;2024-02-15T02:04:23;99125.25;;;19.76;40.02
33163;BME280;29282;45.656;11.302;2024-02-15T02:06:48;99128.34;;;19.75;40.16
33163;BME280;29282;45.656;11.302;2024-02-15T02:09:14;99120.91;;;19.75;40.10
33163;BME280;29282;45.656;11.302;2024-02-15T02:11:49;99115.75;;;19.74;40.43
33163;BME280;29282;45.656;11.302;2024-02-15T02:14:16;99111.84;;;19.66;40.88
33163;BME280;29282;45.656;11.302;2024-02-15T02:16:41;99114.88;;;19.47;41.36
33163;BME280;29282;45.656;11.302;2024-02-15T02:19:07;99110.66;;;19.41;42.05
33163;BME280;29282;45.656;11.302;2024-02-15T02:21:35;99108.06;;;19.36;42.92
33163;BME280;29282;45.656;11.302;2024-02-15T02:24:03;99107.09;;;19.32;43.24
33163;BME280;29282;45.656;11.302;2024-02-15T02:26:33;99104.34;;;19.32;43.69
33163;BME280;29282;45.656;11.302;2024-02-15T02:29:00;99098.84;;;19.32;43.71
33163;BME280;29282;45.656;11.302;2024-02-15T02:31:35;99097.69;;;19.33;43.84
33163;BME280;29282;45.656;11.302;2024-02-15T02:34:01;99094.50;;;19.31;43.97
33163;BME280;29282;45.656;11.302;2024-02-15T02:36:26;99102.72;;;19.31;44.04
33163;BME280;29282;45.656;11.302;2024-02-15T02:38:52;99107.38;;;19.30;44.00
33163;BME280;29282;45.656;11.302;2024-02-15T02:41:18;99096.41;;;19.30;44.38
33163;BME280;29282;45.656;11.302;2024-02-15T02:43:47;99101.59;;;19.32;44.21
33163;BME280;29282;45.656;11.302;2024-02-15T02:46:12;99111.28;;;19.29;44.15
33163;BME280;29282;45.656;11.302;2024-02-15T02:48:39;99110.13;;;19.30;44.36
33163;BME280;29282;45.656;11.302;2024-02-15T02:51:05;99107.72;;;19.29;44.38
33163;BME280;29282;45.656;11.302;2024-02-15T02:53:31;99104.00;;;19.24;44.42
33163;BME280;29282;45.656;11.302;2024-02-15T02:55:57;99101.41;;;19.28;44.43
33163;BME280;29282;45.656;11.302;2024-02-15T02:58:22;99097.38;;;19.25;44.49
33163;BME280;29282;45.656;11.302;2024-02-15T03:00:48;99096.56;;;19.25;44.39
33163;BME280;29282;45.656;11.302;2024-02-15T03:03:15;99109.16;;;19.26;44.58
33163;BME280;29282;45.656;11.302;2024-02-15T03:05:40;99100.63;;;19.28;44.58
33163;BME280;29282;45.656;11.302;2024-02-15T03:08:08;99104.31;;;19.23;44.61
33163;BME280;29282;45.656;11.302;2024-02-15T03:10:34;99114.03;;;19.20;44.78
33163;BME280;29282;45.656;11.302;2024-02-15T03:12:59;99119.19;;;19.22;44.71
33163;BME280;29282;45.656;11.302;2024-02-15T03:15:25;99120.63;;;19.19;44.80
33163;BME280;29282;45.656;11.302;2024-02-15T03:17:50;99111.91;;;19.17;44.93
33163;BME280;29282;45.656;11.302;2024-02-15T03:20:16;99108.03;;;19.18;44.95
33163;BME280;29282;45.656;11.302;2024-02-15T03:22:55;99114.66;;;19.17;44.93
33163;BME280;29282;45.656;11.302;2024-02-15T03:25:21;99117.72;;;19.16;44.99
33163;BME280;29282;45.656;11.302;2024-02-15T03:27:52;99108.97;;;19.14;45.20
33163;BME280;29282;45.656;11.302;2024-02-15T03:30:19;99098.31;;;19.12;45.06
33163;BME280;29282;45.656;11.302;2024-02-15T03:32:45;99099.28;;;19.16;44.99
33163;BME280;29282;45.656;11.302;2024-02-15T03:35:15;99099.13;;;19.13;45.15
33163;BME280;29282;45.656;11.302;2024-02-15T03:37:40;99099.75;;;19.10;45.01
33163;BME280;29282;45.656;11.302;2024-02-15T03:40:08;99099.75;;;19.01;45.34
33163;BME280;29282;45.656;11.302;2024-02-15T03:42:34;99102.63;;;18.96;45.29
33163;BME280;29282;45.656;11.302;2024-02-15T03:45:03;99103.25;;;18.93;45.41
33163;BME280;29282;45.656;11.302;2024-02-15T03:47:32;99101.16;;;18.90;45.52
33163;BME280;29282;45.656;11.302;2024-02-15T03:49:59;99086.94;;;18.88;45.51
33163;BME280;29282;45.656;11.302;2024-02-15T03:52:25;99086.94;;;18.88;45.26
33163;BME280;29282;45.656;11.302;2024-02-15T03:54:50;99090.00;;;18.86;45.55
33163;BME280;29282;45.656;11.302;2024-02-15T03:57:16;99082.09;;;18.85;45.36
33163;BME280;29282;45.656;11.302;2024-02-15T03:59:42;99083.69;;;18.86;45.43
33163;BME280;29282;45.656;11.302;2024-02-15T04:02:08;99091.94;;;18.86;45.43
33163;BME280;29282;45.656;11.302;2024-02-15T04:04:39;99092.06;;;18.81;45.60
33163;BME280;29282;45.656;11.302;2024-02-15T04:07:07;99087.72;;;18.80;45.54
33163;BME280;29282;45.656;11.302;2024-02-15T04:09:33;99088.03;;;18.78;45.36
33163;BME280;29282;45.656;11.302;2024-02-15T04:12:01;99093.53;;;18.78;45.44
33163;BME280;29282;45.656;11.302;2024-02-15T04:14:27;99089.97;;;18.77;45.33
33163;BME280;29282;45.656;11.302;2024-02-15T04:16:53;99093.84;;;18.76;45.36
33163;BME280;29282;45.656;11.302;2024-02-15T04:19:18;99094.97;;;18.75;45.34
33163;BME280;29282;45.656;11.302;2024-02-15T04:21:47;99097.72;;;18.75;45.46
33163;BME280;29282;45.656;11.302;2024-02-15T04:24:13;99101.25;;;18.76;45.27
33163;BME280;29282;45.656;11.302;2024-02-15T04:26:39;99101.59;;;18.74;45.38
33163;BME280;29282;45.656;11.302;2024-02-15T04:29:05;99104.94;;;18.71;45.42
33163;BME280;29282;45.656;11.302;2024-02-15T04:31:33;99103.84;;;18.72;45.45
33163;BME280;29282;45.656;11.302;2024-02-15T04:34:02;99101.91;;;18.73;45.26
33163;BME280;29282;45.656;11.302;2024-02-15T04:36:28;99101.69;;;18.69;45.62
33163;BME280;29282;45.656;11.302;2024-02-15T04:38:59;99110.44;;;18.71;45.45
33163;BME280;29282;45.656;11.302;2024-02-15T04:41:25;99109.13;;;18.69;45.50
33163;BME280;29282;45.656;11.302;2024-02-15T04:43:50;99106.38;;;18.69;45.46
33163;BME280;29282;45.656;11.302;2024-02-15T04:46:17;99102.81;;;18.68;45.50
33163;BME280;29282;45.656;11.302;2024-02-15T04:48:46;99100.38;;;18.67;45.55
33163;BME280;29282;45.656;11.302;2024-02-15T04:51:11;99096.34;;;18.64;45.65
33163;BME280;29282;45.656;11.302;2024-02-15T04:53:37;99095.22;;;18.65;45.44
33163;BME280;29282;45.656;11.302;2024-02-15T04:56:07;99098.78;;;18.66;45.51
33163;BME280;29282;45.656;11.302;2024-02-15T04:58:41;99096.34;;;18.64;45.51
33163;BME280;29282;45.656;11.302;2024-02-15T05:01:16;99091.97;;;18.63;45.55
33163;BME280;29282;45.656;11.302;2024-02-15T05:03:43;99093.91;;;18.63;45.56
33163;BME280;29282;45.656;11.302;2024-02-15T05:06:09;99092.59;;;18.60;45.50
33163;BME280;29282;45.656;11.302;2024-02-15T05:08:35;99099.72;;;18.61;45.26
33163;BME280;29282;45.656;11.302;2024-02-15T05:11:03;99101.16;;;18.59;45.55
33163;BME280;29282;45.656;11.302;2024-02-15T05:13:30;99092.13;;;18.58;45.57
33163;BME280;29282;45.656;11.302;2024-02-15T05:15:56;99093.22;;;18.57;45.46
33163;BME280;29282;45.656;11.302;2024-02-15T05:18:21;99094.88;;;18.58;45.50
33163;BME280;29282;45.656;11.302;2024-02-15T05:20:47;99092.94;;;18.59;45.54
33163;BME280;29282;45.656;11.302;2024-02-15T05:23:12;99086.13;;;18.56;45.60
33163;BME280;29282;45.656;11.302;2024-02-15T05:25:38;99081.44;;;18.57;45.54
33163;BME280;29282;45.656;11.302;2024-02-15T05:28:03;99082.59;;;18.55;45.47
33163;BME280;29282;45.656;11.302;2024-02-15T05:30:31;99079.03;;;18.55;45.63
33163;BME280;29282;45.656;11.302;2024-02-15T05:32:58;99075.78;;;18.53;45.65
33163;BME280;29282;45.656;11.302;2024-02-15T05:35:23;99065.94;;;18.52;45.61
33163;BME280;29282;45.656;11.302;2024-02-15T05:37:53;99074.19;;;18.52;45.74
33163;BME280;29282;45.656;11.302;2024-02-15T05:40:18;99079.66;;;18.52;45.56
33163;BME280;29282;45.656;11.302;2024-02-15T05:42:45;99078.84;;;18.51;45.48
33163;BME280;29282;45.656;11.302;2024-02-15T05:47:54;99079.50;;;18.48;45.61
33163;BME280;29282;45.656;11.302;2024-02-15T05:50:20;99076.75;;;18.48;45.76
33163;BME280;29282;45.656;11.302;2024-02-15T05:52:49;99077.03;;;18.47;45.71
33163;BME280;29282;45.656;11.302;2024-02-15T05:55:18;99085.28;;;18.47;45.77
33163;BME280;29282;45.656;11.302;2024-02-15T05:57:44;99080.13;;;18.45;45.58
33163;BME280;29282;45.656;11.302;2024-02-15T06:00:10;99090.75;;;18.47;45.73
33163;BME280;29282;45.656;11.302;2024-02-15T06:02:36;99095.00;;;18.53;45.53
33163;BME280;29282;45.656;11.302;2024-02-15T06:05:01;99098.72;;;18.57;45.43
33163;BME280;29282;45.656;11.302;2024-02-15T06:07:29;99094.09;;;18.66;45.18
33163;BME280;29282;45.656;11.302;2024-02-15T06:09:57;99088.84;;;18.78;44.86
33163;BME280;29282;45.656;11.302;2024-02-15T06:12:23;99089.22;;;18.94;44.71
33163;BME280;29282;45.656;11.302;2024-02-15T06:14:48;99093.16;;;19.11;44.31
33163;BME280;29282;45.656;11.302;2024-02-15T06:17:14;99097.06;;;19.27;44.03
33163;BME280;29282;45.656;11.302;2024-02-15T06:19:39;99094.66;;;19.34;43.87
33163;BME280;29282;45.656;11.302;2024-02-15T06:22:05;99113.88;;;19.43;43.71
33163;BME280;29282;45.656;11.302;2024-02-15T06:24:30;99107.44;;;19.47;43.74
33163;BME280;29282;45.656;11.302;2024-02-15T06:26:56;99115.84;;;19.51;43.66
33163;BME280;29282;45.656;11.302;2024-02-15T06:29:25;99113.09;;;19.51;43.70
33163;BME280;29282;45.656;11.302;2024-02-15T06:32:10;99120.53;;;19.51;43.81
33163;BME280;29282;45.656;11.302;2024-02-15T06:34:54;99126.50;;;19.53;43.94
33163;BME280;29282;45.656;11.302;2024-02-15T06:37:39;99120.22;;;19.52;43.78
33163;BME280;29282;45.656;11.302;2024-02-15T06:40:23;99129.25;;;19.53;44.02
33163;BME280;29282;45.656;11.302;2024-02-15T06:42:49;99126.84;;;19.51;43.90
33163;BME280;29282;45.656;11.302;2024-02-15T06:45:16;99127.66;;;19.52;43.98
33163;BME280;29282;45.656;11.302;2024-02-15T06:47:43;99130.69;;;19.50;44.05
33163;BME280;29282;45.656;11.302;2024-02-15T06:50:13;99132.66;;;19.49;44.06
33163;BME280;29282;45.656;11.302;2024-02-15T06:52:42;99129.09;;;19.49;44.00
33163;BME280;29282;45.656;11.302;2024-02-15T06:55:08;99126.84;;;19.51;44.08
33163;BME280;29282;45.656;11.302;2024-02-15T06:57:38;99132.34;;;19.60;43.90
33163;BME280;29282;45.656;11.302;2024-02-15T07:00:06;99134.97;;;19.65;43.81
33163;BME280;29282;45.656;11.302;2024-02-15T07:02:36;99137.91;;;19.77;43.72
33163;BME280;29282;45.656;11.302;2024-02-15T07:05:01;99141.28;;;19.83;43.37
33163;BME280;29282;45.656;11.302;2024-02-15T07:07:30;99137.22;;;19.89;43.31
33163;BME280;29282;45.656;11.302;2024-02-15T07:09:58;99141.59;;;19.99;43.27
33163;BME280;29282;45.656;11.302;2024-02-15T07:12:23;99137.88;;;20.03;43.08
33163;BME280;29282;45.656;11.302;2024-02-15T07:14:49;99139.81;;;20.03;43.25
33163;BME280;29282;45.656;11.302;2024-02-15T07:17:15;99141.13;;;20.05;43.20
33163;BME280;29282;45.656;11.302;2024-02-15T07:19:44;99136.56;;;20.09;43.18
33163;BME280;29282;45.656;11.302;2024-02-15T07:22:10;99134.31;;;20.11;43.15
33163;BME280;29282;45.656;11.302;2024-02-15T07:24:35;99138.69;;;20.12;43.06
33163;BME280;29282;45.656;11.302;2024-02-15T07:27:04;99140.78;;;20.15;43.18
33163;BME280;29282;45.656;11.302;2024-02-15T07:29:30;99149.19;;;20.19;43.06
33163;BME280;29282;45.656;11.302;2024-02-15T07:32:00;99145.63;;;20.18;43.05
33163;BME280;29282;45.656;11.302;2024-02-15T07:34:32;99142.09;;;20.18;43.20
33163;BME280;29282;45.656;11.302;2024-02-15T07:36:58;99146.94;;;20.21;43.25
33163;BME280;29282;45.656;11.302;2024-02-15T07:39:24;99137.88;;;20.21;43.08
33163;BME280;29282;45.656;11.302;2024-02-15T07:41:56;99138.03;;;20.24;43.26
33163;BME280;29282;45.656;11.302;2024-02-15T07:44:24;99138.69;;;20.21;43.00
33163;BME280;29282;45.656;11.302;2024-02-15T07:46:50;99133.00;;;20.26;42.86
33163;BME280;29282;45.656;11.302;2024-02-15T07:49:16;99135.59;;;20.23;43.11
33163;BME280;29282;45.656;11.302;2024-02-15T07:51:43;99142.41;;;20.16;43.34
33163;BME280;29282;45.656;11.302;2024-02-15T07:54:09;99126.06;;;20.11;43.24
33163;BME280;29282;45.656;11.302;2024-02-15T07:56:34;99139.03;;;20.11;43.42
33163;BME280;29282;45.656;11.302;2024-02-15T07:59:00;99137.72;;;20.08;43.40
33163;BME280;29282;45.656;11.302;2024-02-15T08:01:26;99135.94;;;20.04;43.46
33163;BME280;29282;45.656;11.302;2024-02-15T08:03:52;99135.13;;;20.03;43.37
33163;BME280;29282;45.656;11.302;2024-02-15T08:06:18;99141.91;;;20.06;43.19
33163;BME280;29282;45.656;11.302;2024-02-15T08:08:47;99135.63;;;20.05;43.25
33163;BME280;29282;45.656;11.302;2024-02-15T08:11:13;99144.38;;;20.07;43.04
33163;BME280;29282;45.656;11.302;2024-02-15T08:13:45;99136.56;;;20.09;43.29
33163;BME280;29282;45.656;11.302;2024-02-15T08:16:15;99138.84;;;20.16;43.21
33163;BME280;29282;45.656;11.302;2024-02-15T08:18:42;99139.81;;;20.20;43.19
33163;BME280;29282;45.656;11.302;2024-02-15T08:21:09;99142.22;;;20.22;43.23
33163;BME280;29282;45.656;11.302;2024-02-15T08:23:36;99144.19;;;20.21;43.27
33163;BME280;29282;45.656;11.302;2024-02-15T08:26:01;99142.72;;;20.24;43.23
33163;BME280;29282;45.656;11.302;2024-02-15T08:28:27;99138.03;;;20.24;43.28
33163;BME280;29282;45.656;11.302;2024-02-15T08:30:54;99144.00;;;20.26;43.38
33163;BME280;29282;45.656;11.302;2024-02-15T08:33:21;99145.94;;;20.26;43.39
33163;BME280;29282;45.656;11.302;2024-02-15T08:35:47;99142.38;;;20.25;43.50
33163;BME280;29282;45.656;11.302;2024-02-15T08:38:12;99140.44;;;20.26;43.44
33163;BME280;29282;45.656;11.302;2024-02-15T08:40:37;99141.59;;;20.25;43.53
33163;BME280;29282;45.656;11.302;2024-02-15T08:43:03;99133.97;;;20.22;43.59
33163;BME280;29282;45.656;11.302;2024-02-15T08:45:28;99133.97;;;20.22;43.60
33163;BME280;29282;45.656;11.302;2024-02-15T08:47:54;99133.19;;;20.21;43.61
33163;BME280;29282;45.656;11.302;2024-02-15T08:50:19;99135.94;;;20.21;43.66
33163;BME280;29282;45.656;11.302;2024-02-15T08:52:48;99130.44;;;20.21;43.66
33163;BME280;29282;45.656;11.302;2024-02-15T08:55:15;99132.38;;;20.21;43.74
33163;BME280;29282;45.656;11.302;2024-02-15T08:57:42;99133.19;;;20.21;43.90
33163;BME280;29282;45.656;11.302;2024-02-15T09:00:10;99130.72;;;20.19;43.75
33163;BME280;29282;45.656;11.302;2024-02-15T09:02:48;99134.63;;;20.18;43.90
33163;BME280;29282;45.656;11.302;2024-02-15T09:05:16;99130.28;;;20.17;43.74
33163;BME280;29282;45.656;11.302;2024-02-15T09:07:44;99120.88;;;20.18;43.82
33163;BME280;29282;45.656;11.302;2024-02-15T09:10:14;99123.16;;;20.16;43.86
33163;BME280;29282;45.656;11.302;2024-02-15T09:12:41;99127.84;;;20.16;44.08
33163;BME280;29282;45.656;11.302;2024-02-15T09:15:08;99117.97;;;20.15;43.86
33163;BME280;29282;45.656;11.302;2024-02-15T09:17:37;99123.31;;;20.11;43.92
33163;BME280;29282;45.656;11.302;2024-02-15T09:20:11;99119.41;;;20.12;44.08
33163;BME280;29282;45.656;11.302;2024-02-15T09:22:48;99114.56;;;20.09;44.14
33163;BME280;29282;45.656;11.302;2024-02-15T09:25:13;99125.56;;;20.09;44.14
33163;BME280;29282;45.656;11.302;2024-02-15T09:27:40;99120.91;;;20.10;44.12
33163;BME280;29282;45.656;11.302;2024-02-15T09:30:06;99122.00;;;20.09;44.09
33163;BME280;29282;45.656;11.302;2024-02-15T09:32:35;99122.81;;;20.09;44.14
33163;BME280;29282;45.656;11.302;2024-02-15T09:35:01;99120.06;;;20.09;44.03
33163;BME280;29282;45.656;11.302;2024-02-15T09:37:26;99113.75;;;20.09;44.01
33163;BME280;29282;45.656;11.302;2024-02-15T09:39:54;99118.47;;;20.08;44.26
33163;BME280;29282;45.656;11.302;2024-02-15T09:42:24;99117.97;;;20.06;44.24
33163;BME280;29282;45.656;11.302;2024-02-15T09:44:50;99117.16;;;20.06;44.16
33163;BME280;29282;45.656;11.302;2024-02-15T09:47:18;99118.63;;;20.03;44.26
33163;BME280;29282;45.656;11.302;2024-02-15T09:49:44;99111.19;;;20.04;44.41
33163;BME280;29282;45.656;11.302;2024-02-15T09:52:09;99109.56;;;20.03;44.21
33163;BME280;29282;45.656;11.302;2024-02-15T09:54:41;99107.63;;;20.03;44.27
33163;BME280;29282;45.656;11.302;2024-02-15T09:57:11;99113.44;;;20.02;44.36
33163;BME280;29282;45.656;11.302;2024-02-15T09:59:37;99115.06;;;20.03;44.38
33163;BME280;29282;45.656;11.302;2024-02-15T10:02:04;99112.66;;;20.01;44.37
33163;BME280;29282;45.656;11.302;2024-02-15T10:04:37;99114.25;;;20.02;44.43
33163;BME280;29282;45.656;11.302;2024-02-15T10:07:02;99118.16;;;20.01;44.39
33163;BME280;29282;45.656;11.302;2024-02-15T10:09:29;99116.19;;;20.02;44.46
33163;BME280;29282;45.656;11.302;2024-02-15T10:12:00;99111.84;;;20.01;44.48
33163;BME280;29282;45.656;11.302;2024-02-15T10:14:27;99105.53;;;20.00;44.25
33163;BME280;29282;45.656;11.302;2024-02-15T10:16:53;99103.91;;;19.99;44.51
33163;BME280;29282;45.656;11.302;2024-02-15T10:19:20;99101.50;;;19.98;44.45
33163;BME280;29282;45.656;11.302;2024-02-15T10:21:52;99103.75;;;19.95;44.49
33163;BME280;29282;45.656;11.302;2024-02-15T10:24:22;99106.19;;;19.97;44.46
33163;BME280;29282;45.656;11.302;2024-02-15T10:26:50;99105.69;;;19.95;44.68
33163;BME280;29282;45.656;11.302;2024-02-15T10:29:16;99112.50;;;19.98;44.65
33163;BME280;29282;45.656;11.302;2024-02-15T10:31:59;99106.03;;;19.93;44.51
33163;BME280;29282;45.656;11.302;2024-02-15T10:34:25;99103.28;;;19.93;44.58
33163;BME280;29282;45.656;11.302;2024-02-15T10:37:14;99099.06;;;19.96;44.57
33163;BME280;29282;45.656;11.302;2024-02-15T10:39:42;99097.44;;;19.95;44.66
33163;BME280;29282;45.656;11.302;2024-02-15T10:42:08;99091.94;;;19.95;44.67
33163;BME280;29282;45.656;11.302;2024-02-15T10:44:37;99085.63;;;19.94;44.56
33163;BME280;29282;45.656;11.302;2024-02-15T10:47:04;99083.69;;;19.95;44.53
33163;BME280;29282;45.656;11.302;2024-02-15T10:49:33;99075.28;;;19.91;45.02
33163;BME280;29282;45.656;11.302;2024-02-15T10:52:01;99077.22;;;19.91;44.72
33163;BME280;29282;45.656;11.302;2024-02-15T10:57:10;99076.72;;;19.89;44.84
33163;BME280;29282;45.656;11.302;2024-02-15T10:59:37;99068.81;;;19.87;44.82
33163;BME280;29282;45.656;11.302;2024-02-15T11:02:23;99057.03;;;19.87;44.89
33163;BME280;29282;45.656;11.302;2024-02-15T11:04:53;99062.53;;;19.87;44.83
33163;BME280;29282;45.656;11.302;2024-02-15T11:07:25;99062.53;;;19.87;44.85
33163;BME280;29282;45.656;11.302;2024-02-15T11:09:54;99046.81;;;19.87;44.85
33163;BME280;29282;45.656;11.302;2024-02-15T11:12:24;99046.66;;;19.84;45.16
33163;BME280;29282;45.656;11.302;2024-02-15T11:14:51;99040.34;;;19.83;44.96
33163;BME280;29282;45.656;11.302;2024-02-15T11:20:03;99035.66;;;19.84;44.82
33163;BME280;29282;45.656;11.302;2024-02-15T11:22:34;99041.16;;;19.84;45.02
33163;BME280;29282;45.656;11.302;2024-02-15T11:25:03;99041.47;;;19.82;44.89
33163;BME280;29282;45.656;11.302;2024-02-15T11:27:38;99033.88;;;19.79;45.00
33163;BME280;29282;45.656;11.302;2024-02-15T11:30:05;99041.81;;;19.81;45.09
33163;BME280;29282;45.656;11.302;2024-02-15T11:32:49;99031.94;;;19.80;45.02
33163;BME280;29282;45.656;11.302;2024-02-15T11:43:06;99025.00;;;19.74;45.21
33163;BME280;29282;45.656;11.302;2024-02-15T11:45:33;99016.56;;;19.70;45.04
33163;BME280;29282;45.656;11.302;2024-02-15T11:48:12;99016.09;;;19.68;45.14
33163;BME280;29282;45.656;11.302;2024-02-15T11:50:41;99011.91;;;19.70;44.96
33163;BME280;29282;45.656;11.302;2024-02-15T11:53:07;99011.25;;;19.74;44.92
33163;BME280;29282;45.656;11.302;2024-02-15T11:55:37;99006.22;;;19.76;44.83
33163;BME280;29282;45.656;11.302;2024-02-15T11:58:04;99007.53;;;19.78;44.87
33163;BME280;29282;45.656;11.302;2024-02-15T12:00:30;98997.81;;;19.81;44.75
33163;BME280;29282;45.656;11.302;2024-02-15T12:03:15;98993.44;;;19.88;44.87
33163;BME280;29282;45.656;11.302;2024-02-15T12:05:59;98991.78;;;19.96;44.59
33163;BME280;29282;45.656;11.302;2024-02-15T12:08:44;98990.81;;;20.01;44.35
33163;BME280;29282;45.656;11.302;2024-02-15T12:11:29;98990.47;;;20.11;44.39
33163;BME280;29282;45.656;11.302;2024-02-15T12:14:14;98987.50;;;20.16;44.48
33163;BME280;29282;45.656;11.302;2024-02-15T12:17:06;98987.16;;;20.26;44.38
33163;BME280;29282;45.656;11.302;2024-02-15T12:19:51;98984.38;;;20.35;44.50
33163;BME280;29282;45.656;11.302;2024-02-15T12:22:32;98976.75;;;20.40;44.75
33163;BME280;29282;45.656;11.302;2024-02-15T12:25:01;98977.22;;;20.42;45.13
33163;BME280;29282;45.656;11.302;2024-02-15T12:27:31;98980.44;;;20.45;45.18
33163;BME280;29282;45.656;11.302;2024-02-15T12:29:57;98979.31;;;20.46;45.44
33163;BME280;29282;45.656;11.302;2024-02-15T12:32:27;98980.59;;;20.48;45.81
33163;BME280;29282;45.656;11.302;2024-02-15T12:35:08;98975.88;;;20.49;45.86
33163;BME280;29282;45.656;11.302;2024-02-15T12:37:34;98976.84;;;20.53;45.48
33163;BME280;29282;45.656;11.302;2024-02-15T12:40:10;98963.75;;;20.50;45.49
33163;BME280;29282;45.656;11.302;2024-02-15T12:42:39;98964.56;;;20.50;45.41
33163;BME280;29282;45.656;11.302;2024-02-15T12:45:04;98960.34;;;20.53;45.30
33163;BME280;29282;45.656;11.302;2024-02-15T12:47:32;98952.09;;;20.53;45.40
33163;BME280;29282;45.656;11.302;2024-02-15T12:49:58;98944.97;;;20.52;45.31
33163;BME280;29282;45.656;11.302;2024-02-15T12:52:37;98947.41;;;20.53;45.54
33163;BME280;29282;45.656;11.302;2024-02-15T12:55:22;98946.41;;;20.58;45.54
33163;BME280;29282;45.656;11.302;2024-02-15T12:57:51;98937.66;;;20.56;45.62
33163;BME280;29282;45.656;11.302;2024-02-15T13:00:22;98936.53;;;20.57;45.27
33163;BME280;29282;45.656;11.302;2024-02-15T13:02:53;98933.31;;;20.55;45.47
33163;BME280;29282;45.656;11.302;2024-02-15T13:05:19;98937.19;;;20.54;45.89
33163;BME280;29282;45.656;11.302;2024-02-15T13:07:49;98935.13;;;20.51;45.54
33163;BME280;29282;45.656;11.302;2024-02-15T13:10:16;98926.03;;;20.50;45.42